createdAt,value
2023-05-10T00:00:30.329Z,100907.02
2023-05-10T00:03:30.497Z,100905.59
2023-05-10T00:06:30.250Z,100906.31
2023-05-10T00:09:30.300Z,100905.52
2023-05-10T00:12:30.317Z,100905.33
2023-05-10T00:15:30.258Z,100902.84
2023-05-10T00:18:30.308Z,100907.30
2023-05-10T00:21:30.269Z,100907.56
2023-05-10T00:24:32.312Z,100903.34
2023-05-10T00:27:32.319Z,100896.48
2023-05-10T00:30:32.359Z,100898.63
2023-05-10T00:33:32.470Z,100899.95
2023-05-10T00:36:32.470Z,100895.73
2023-05-10T00:39:34.414Z,100895.67
2023-05-10T00:42:34.367Z,100897.11
2023-05-10T00:45:37.337Z,100894.10
2023-05-10T00:48:37.378Z,100891.61
2023-05-10T00:51:38.424Z,100896.96
2023-05-10T00:54:38.435Z,100897.42
2023-05-10T00:57:39.438Z,100896.62
2023-05-10T01:00:39.395Z,100894.52
2023-05-10T01:03:39.433Z,100891.79
2023-05-10T01:06:39.315Z,100894.78
2023-05-10T01:09:39.379Z,100895.34
2023-05-10T01:12:39.379Z,100896.37
2023-05-10T01:15:39.458Z,100897.63
2023-05-10T01:18:40.532Z,100894.33
2023-05-10T01:21:47.429Z,100894.55
2023-05-10T01:24:59.505Z,100890.16
2023-05-10T01:28:20.449Z,100892.01
2023-05-10T01:31:32.537Z,100895.88
2023-05-10T01:34:36.426Z,100896.46
2023-05-10T01:37:39.450Z,100895.59
2023-05-10T01:41:02.427Z,100890.98
2023-05-10T01:44:07.986Z,100886.20
2023-05-10T01:47:15.451Z,100888.27
2023-05-10T01:50:18.663Z,100889.62
2023-05-10T01:53:22.474Z,100882.48
2023-05-10T01:56:22.416Z,100875.45
2023-05-10T01:59:26.444Z,100880.53
2023-05-10T02:02:27.488Z,100877.70
2023-05-10T02:05:29.419Z,100880.77
2023-05-10T02:08:30.500Z,100880.25
2023-05-10T02:11:30.459Z,100878.65
2023-05-10T02:14:37.477Z,100878.02
2023-05-10T02:17:37.555Z,100881.13
2023-05-10T02:20:40.551Z,100877.77
2023-05-10T02:23:40.487Z,100881.13
2023-05-10T02:26:40.494Z,100876.82
2023-05-10T02:29:41.537Z,100878.98
2023-05-10T02:32:42.543Z,100882.70
2023-05-10T02:35:42.549Z,100883.58
2023-05-10T02:38:42.541Z,100883.11
2023-05-10T02:41:43.553Z,100879.03
2023-05-10T02:44:43.551Z,100878.98
2023-05-10T02:47:43.604Z,100879.35
2023-05-10T02:50:43.652Z,100881.13
2023-05-10T02:53:46.541Z,100883.52
2023-05-10T02:56:47.742Z,100881.30
2023-05-10T02:59:47.550Z,100879.45
2023-05-10T03:02:47.658Z,100881.85
2023-05-10T03:05:47.660Z,100882.02
2023-05-10T03:08:47.545Z,100885.60
2023-05-10T03:12:05.584Z,100884.44
2023-05-10T03:15:06.625Z,100882.48
2023-05-10T03:18:13.596Z,100886.32
2023-05-10T03:21:13.658Z,100886.96
2023-05-10T03:24:22.572Z,100889.64
2023-05-10T03:27:22.610Z,100885.13
2023-05-10T03:30:22.635Z,100888.60
2023-05-10T03:33:22.668Z,100888.17
2023-05-10T03:36:23.603Z,100888.50
2023-05-10T03:39:23.717Z,100887.50
2023-05-10T03:42:24.612Z,100885.41
2023-05-10T03:45:24.630Z,100885.98
2023-05-10T03:48:24.645Z,100885.17
2023-05-10T03:51:24.698Z,100890.28
2023-05-10T03:54:24.645Z,100891.47
2023-05-10T03:57:25.876Z,100891.67
2023-05-10T04:00:25.668Z,100897.00
2023-05-10T04:03:27.740Z,100894.58
2023-05-10T04:06:27.722Z,100896.14
2023-05-10T04:09:27.654Z,100897.88
2023-05-10T04:12:27.987Z,100900.56
2023-05-10T04:15:27.686Z,100901.23
2023-05-10T04:18:34.765Z,100899.02
2023-05-10T04:21:34.737Z,100897.79
2023-05-10T04:24:34.698Z,100899.58
2023-05-10T04:27:34.721Z,100901.00
2023-05-10T04:30:35.770Z,100900.91
2023-05-10T04:33:35.745Z,100904.88
2023-05-10T04:36:36.736Z,100901.55
2023-05-10T04:39:36.723Z,100899.60
2023-05-10T04:42:37.722Z,100899.73
2023-05-10T04:45:38.774Z,100897.14
2023-05-10T04:48:38.740Z,100896.10
2023-05-10T04:51:38.762Z,100893.23
2023-05-10T04:54:38.734Z,100894.05
2023-05-10T04:57:38.742Z,100892.78
2023-05-10T05:00:38.799Z,100893.52
2023-05-10T05:04:07.613Z,100896.19
2023-05-10T05:07:01.767Z,100898.05
2023-05-10T05:10:01.746Z,100898.23
2023-05-10T05:13:01.879Z,100899.70
2023-05-10T05:16:01.812Z,100898.80
2023-05-10T05:19:01.836Z,100888.66
2023-05-10T05:22:01.849Z,100892.35
2023-05-10T05:25:01.790Z,100890.15
2023-05-10T05:28:01.764Z,100889.12
2023-05-10T05:31:01.758Z,100884.07
2023-05-10T05:34:01.816Z,100873.66
2023-05-10T05:37:01.808Z,100878.73
2023-05-10T05:40:01.834Z,100882.24
2023-05-10T05:43:01.980Z,100879.98
2023-05-10T05:46:02.157Z,100880.39
2023-05-10T05:49:02.981Z,100885.32
2023-05-10T05:52:02.805Z,100887.09
2023-05-10T05:55:03.957Z,100887.08
2023-05-10T05:58:04.010Z,100880.30
2023-05-10T06:01:03.882Z,100885.16
2023-05-10T06:04:03.955Z,100885.45
2023-05-10T06:07:03.906Z,100886.58
2023-05-10T06:10:03.899Z,100885.00
2023-05-10T06:13:05.864Z,100883.95
2023-05-10T06:16:06.026Z,100876.30
2023-05-10T06:19:06.109Z,100869.65
2023-05-10T06:22:05.939Z,100870.91
2023-05-10T06:25:05.885Z,100872.85
2023-05-10T06:28:06.947Z,100875.30
2023-05-10T06:31:08.906Z,100869.09
2023-05-10T06:34:11.180Z,100869.73
2023-05-10T06:37:11.992Z,100871.31
2023-05-10T06:40:13.307Z,100872.98
2023-05-10T06:43:13.962Z,100864.12
2023-05-10T06:46:14.012Z,100864.85
2023-05-10T06:49:14.144Z,100867.63
2023-05-10T06:52:14.946Z,100864.63
2023-05-10T06:55:16.344Z,100864.48
2023-05-10T06:58:18.025Z,100869.79
2023-05-10T07:01:18.222Z,100864.64
2023-05-10T07:04:19.062Z,100866.42
2023-05-10T07:07:19.001Z,100864.09
2023-05-10T07:10:19.979Z,100864.96
2023-05-10T07:13:20.183Z,100857.55
2023-05-10T07:16:20.053Z,100852.05
2023-05-10T07:19:20.040Z,100850.63
2023-05-10T07:22:20.017Z,100851.67
2023-05-10T07:25:20.040Z,100850.69
2023-05-10T07:28:21.045Z,100854.11
2023-05-10T07:31:21.072Z,100857.71
2023-05-10T07:34:21.039Z,100859.49
2023-05-10T07:37:22.086Z,100860.93
2023-05-10T07:40:22.237Z,100863.05
2023-05-10T07:43:23.656Z,100859.56
2023-05-10T07:46:27.114Z,100858.50
2023-05-10T07:49:27.243Z,100864.91
2023-05-10T07:52:27.146Z,100863.29
2023-05-10T07:55:28.303Z,100857.70
2023-05-10T07:58:29.198Z,100851.77
2023-05-10T08:01:30.118Z,100857.12
2023-05-10T08:04:30.144Z,100841.98
2023-05-10T08:07:31.286Z,100850.23
2023-05-10T08:10:31.152Z,100850.60
2023-05-10T08:13:32.161Z,100845.55
2023-05-10T08:16:32.200Z,100845.15
2023-05-10T08:19:32.173Z,100843.77
2023-05-10T08:22:33.731Z,100842.10
2023-05-10T08:25:34.198Z,100840.47
2023-05-10T08:28:34.284Z,100833.85
2023-05-10T08:31:34.487Z,100820.27
2023-05-10T08:34:34.342Z,100824.92
2023-05-10T08:37:37.282Z,100819.40
2023-05-10T08:40:38.168Z,100826.67
2023-05-10T08:43:42.248Z,100831.88
2023-05-10T08:46:45.462Z,100827.15
2023-05-10T08:49:45.590Z,100827.88
2023-05-10T08:52:47.186Z,100830.20
2023-05-10T08:55:47.268Z,100823.66
2023-05-10T08:58:47.226Z,100823.32
2023-05-10T09:01:47.196Z,100824.30
2023-05-10T09:04:47.327Z,100830.52
2023-05-10T09:07:48.206Z,100831.54
2023-05-10T09:10:49.271Z,100832.50
2023-05-10T09:13:49.198Z,100830.56
2023-05-10T09:16:50.334Z,100822.72
2023-05-10T09:19:50.325Z,100821.60
2023-05-10T09:22:51.401Z,100821.21
2023-05-10T09:25:51.224Z,100817.80
2023-05-10T09:29:04.372Z,100817.58
2023-05-10T09:32:04.283Z,100818.13
2023-05-10T09:35:04.433Z,100817.30
2023-05-10T09:38:04.297Z,100820.73
2023-05-10T09:41:09.313Z,100822.77
2023-05-10T09:44:09.360Z,100821.40
2023-05-10T09:47:11.468Z,100818.02
2023-05-10T09:50:11.329Z,100814.05
2023-05-10T09:53:11.287Z,100812.59
2023-05-10T09:56:12.434Z,100809.67
2023-05-10T09:59:18.719Z,100810.52
2023-05-10T10:02:19.272Z,100816.95
2023-05-10T10:05:20.264Z,100814.23
2023-05-10T10:08:20.414Z,100812.16
2023-05-10T10:11:20.392Z,100813.73
2023-05-10T10:14:20.344Z,100818.33
2023-05-10T10:17:20.334Z,100816.98
2023-05-10T10:20:20.511Z,100814.06
2023-05-10T10:23:22.324Z,100821.59
2023-05-10T10:26:22.340Z,100819.73
2023-05-10T10:29:45.406Z,100824.70
2023-05-10T10:33:10.236Z,100826.80
2023-05-10T10:36:17.434Z,100826.20
2023-05-10T10:39:19.324Z,100825.25
2023-05-10T10:42:19.372Z,100819.48
2023-05-10T10:45:25.390Z,100819.80
2023-05-10T10:48:33.418Z,100818.15
2023-05-10T10:51:33.408Z,100819.27
2023-05-10T10:54:42.471Z,100813.83
2023-05-10T10:57:42.502Z,100812.42
2023-05-10T11:00:46.420Z,100809.74
2023-05-10T11:03:47.550Z,100804.05
2023-05-10T11:06:47.425Z,100803.71
2023-05-10T11:09:53.459Z,100799.30
2023-05-10T11:13:07.434Z,100798.83
2023-05-10T11:16:07.520Z,100799.25
2023-05-10T11:19:08.608Z,100801.98
2023-05-10T11:22:17.627Z,100801.79
2023-05-10T11:25:17.761Z,100802.80
2023-05-10T11:28:28.876Z,100800.91
2023-05-10T11:31:38.264Z,100795.05
2023-05-10T11:35:09.913Z,100789.48
2023-05-10T11:38:24.926Z,100782.02
2023-05-10T11:41:29.486Z,100782.09
2023-05-10T11:44:29.583Z,100782.34
2023-05-10T11:47:30.580Z,100778.28
2023-05-10T11:50:30.506Z,100784.58
2023-05-10T11:53:30.517Z,100781.11
2023-05-10T11:56:30.551Z,100778.70
2023-05-10T11:59:33.031Z,100778.35
2023-05-10T12:02:34.479Z,100777.83
2023-05-10T12:05:34.611Z,100777.64
2023-05-10T12:08:34.482Z,100772.44
2023-05-10T12:11:34.601Z,100775.39
2023-05-10T12:14:35.789Z,100772.04
2023-05-10T12:17:35.628Z,100765.50
2023-05-10T12:20:37.557Z,100758.42
2023-05-10T12:23:37.585Z,100761.84
2023-05-10T12:26:30.874Z,100764.81
2023-05-10T12:29:32.848Z,100763.41
2023-05-10T12:32:33.965Z,100766.64
2023-05-10T12:35:34.751Z,100765.17
2023-05-10T12:38:54.607Z,100755.94
2023-05-10T12:41:54.639Z,100756.80
2023-05-10T12:44:54.595Z,100760.19
2023-05-10T12:47:54.605Z,100761.25
2023-05-10T12:50:54.641Z,100761.98
2023-05-10T12:53:54.764Z,100765.45
2023-05-10T12:56:54.645Z,100768.52
2023-05-10T12:59:54.768Z,100775.32
2023-05-10T13:02:57.789Z,100775.15
2023-05-10T13:05:57.770Z,100770.10
2023-05-10T13:08:57.681Z,100764.10
2023-05-10T13:12:01.044Z,100766.42
2023-05-10T13:15:01.774Z,100763.86
2023-05-10T13:18:02.832Z,100765.45
2023-05-10T13:21:02.661Z,100763.86
2023-05-10T13:24:02.674Z,100757.75
2023-05-10T13:27:02.863Z,100750.25
2023-05-10T13:30:02.755Z,100747.72
2023-05-10T13:33:02.813Z,100745.32
2023-05-10T13:36:03.703Z,100743.41
2023-05-10T13:39:03.754Z,100733.80
2023-05-10T13:42:04.761Z,100740.30
2023-05-10T13:45:04.855Z,100745.84
2023-05-10T13:48:04.792Z,100740.92
2023-05-10T13:51:04.837Z,100738.73
2023-05-10T13:54:04.734Z,100740.91
2023-05-10T13:57:06.847Z,100734.84
2023-05-10T14:00:06.747Z,100741.55
2023-05-10T14:03:06.962Z,100738.10
2023-05-10T14:06:07.082Z,100737.98
2023-05-10T14:09:06.716Z,100728.52
2023-05-10T14:12:06.786Z,100733.89
2023-05-10T14:15:07.847Z,100731.42
2023-05-10T14:18:07.961Z,100730.80
2023-05-10T14:21:07.812Z,100733.39
2023-05-10T14:24:07.856Z,100731.42
2023-05-10T14:27:07.827Z,100734.23
2023-05-10T14:30:07.784Z,100727.42
2023-05-10T14:33:07.847Z,100729.52
2023-05-10T14:36:07.825Z,100729.22
2023-05-10T14:39:07.858Z,100725.09
2023-05-10T14:42:07.813Z,100732.72
2023-05-10T14:45:07.861Z,100731.76
2023-05-10T14:48:07.826Z,100734.71
2023-05-10T14:51:07.793Z,100732.20
2023-05-10T14:54:09.770Z,100731.63
2023-05-10T14:57:10.034Z,100726.30
2023-05-10T15:00:13.882Z,100720.73
2023-05-10T15:03:15.226Z,100725.71
2023-05-10T15:06:15.906Z,100723.47
2023-05-10T15:09:15.933Z,100721.61
2023-05-10T15:12:15.834Z,100722.52
2023-05-10T15:15:16.094Z,100718.26
2023-05-10T15:18:19.123Z,100715.46
2023-05-10T15:21:18.848Z,100709.55
2023-05-10T15:24:18.977Z,100713.52
2023-05-10T15:27:18.905Z,100710.02
2023-05-10T15:30:19.239Z,100712.27
2023-05-10T15:33:19.166Z,100707.91
2023-05-10T15:36:19.028Z,100708.38
2023-05-10T15:39:19.186Z,100709.48
2023-05-10T15:42:19.933Z,100705.77
2023-05-10T15:45:20.343Z,100700.39
2023-05-10T15:48:20.907Z,100703.56
2023-05-10T15:51:22.795Z,100703.49
2023-05-10T15:54:26.994Z,100708.23
2023-05-10T15:57:28.070Z,100701.44
2023-05-10T16:00:32.298Z,100713.14
2023-05-10T16:03:37.637Z,100716.94
2023-05-10T16:06:38.947Z,100711.02
2023-05-10T16:09:40.382Z,100716.61
2023-05-10T16:12:43.298Z,100725.81
2023-05-10T16:15:37.975Z,100720.25
2023-05-10T16:18:38.108Z,100720.88
2023-05-10T16:21:40.987Z,100723.27
2023-05-10T16:24:40.963Z,100719.48
2023-05-10T16:27:41.561Z,100726.35
2023-05-10T16:30:43.021Z,100728.09
2023-05-10T16:33:42.970Z,100725.63
2023-05-10T16:36:43.039Z,100729.81
2023-05-10T16:39:43.003Z,100729.94
2023-05-10T16:42:43.062Z,100727.54
2023-05-10T16:45:45.246Z,100726.20
2023-05-10T16:48:45.217Z,100730.42
2023-05-10T16:51:44.998Z,100729.98
2023-05-10T16:54:45.013Z,100729.20
2023-05-10T16:57:46.107Z,100730.00
2023-05-10T17:00:46.114Z,100732.91
2023-05-10T17:03:46.258Z,100728.96
2023-05-10T17:06:48.140Z,100740.12
2023-05-10T17:09:49.057Z,100741.02
2023-05-10T17:12:49.266Z,100746.21
2023-05-10T17:15:49.223Z,100748.33
2023-05-10T17:18:52.151Z,100755.45
2023-05-10T17:21:54.246Z,100754.45
2023-05-10T17:24:54.141Z,100753.64
2023-05-10T17:27:55.142Z,100759.23
2023-05-10T17:30:56.057Z,100762.56
2023-05-10T17:33:56.156Z,100765.11
2023-05-10T17:36:57.146Z,100766.92
2023-05-10T17:39:59.874Z,100763.42
2023-05-10T17:43:00.071Z,100776.85
2023-05-10T17:46:02.701Z,100776.02
2023-05-10T17:49:03.544Z,100779.14
2023-05-10T17:52:04.426Z,100783.82
2023-05-10T17:55:04.434Z,100790.25
2023-05-10T17:58:08.399Z,100790.90
2023-05-10T18:01:09.459Z,100794.83
2023-05-10T18:04:09.460Z,100797.90
2023-05-10T18:07:09.139Z,100797.44
2023-05-10T18:10:09.143Z,100799.56
2023-05-10T18:13:11.184Z,100800.92
2023-05-10T18:16:12.175Z,100804.16
2023-05-10T18:19:14.199Z,100804.60
2023-05-10T18:22:14.259Z,100810.65
2023-05-10T18:25:17.636Z,100812.05
2023-05-10T18:28:18.126Z,100811.27
2023-05-10T18:31:18.268Z,100812.05
2023-05-10T18:34:18.196Z,100811.60
2023-05-10T18:37:18.193Z,100818.09
2023-05-10T18:40:20.209Z,100816.32
2023-05-10T18:43:20.238Z,100816.19
2023-05-10T18:46:20.196Z,100817.59
2023-05-10T18:49:20.550Z,100822.34
2023-05-10T18:52:22.233Z,100820.16
2023-05-10T18:55:23.732Z,100821.95
2023-05-10T18:58:26.292Z,100821.90
2023-05-10T19:01:26.257Z,100821.92
2023-05-10T19:04:26.499Z,100823.34
2023-05-10T19:07:26.239Z,100821.30
2023-05-10T19:10:26.298Z,100822.37
2023-05-10T19:13:26.284Z,100822.48
2023-05-10T19:16:29.440Z,100824.23
2023-05-10T19:19:29.367Z,100827.52
2023-05-10T19:25:35.244Z,100824.81
2023-05-10T19:28:37.222Z,100827.65
2023-05-10T19:31:37.608Z,100828.50
2023-05-10T19:34:37.304Z,100834.33
2023-05-10T19:37:38.498Z,100833.55
2023-05-10T19:40:38.340Z,100835.78
2023-05-10T19:43:43.303Z,100834.73
2023-05-10T19:46:43.392Z,100834.78
2023-05-10T19:49:44.643Z,100833.76
2023-05-10T19:52:45.359Z,100832.77
2023-05-10T19:55:46.358Z,100833.45
2023-05-10T19:58:47.343Z,100836.36
2023-05-10T20:01:47.427Z,100839.27
2023-05-10T20:04:49.516Z,100835.14
2023-05-10T20:07:50.772Z,100837.64
2023-05-10T20:10:51.836Z,100835.30
2023-05-10T20:13:52.431Z,100836.89
2023-05-10T20:16:52.448Z,100841.93
2023-05-10T20:19:54.321Z,100845.81
2023-05-10T20:22:54.412Z,100845.98
2023-05-10T20:25:57.442Z,100849.52
2023-05-10T20:28:57.413Z,100847.98
2023-05-10T20:31:57.461Z,100851.56
2023-05-10T20:34:57.443Z,100848.48
2023-05-10T20:37:57.465Z,100848.83
2023-05-10T20:40:57.705Z,100844.35
2023-05-10T20:43:58.715Z,100844.52
2023-05-10T20:46:59.577Z,100842.48
2023-05-10T20:50:00.432Z,100842.29
2023-05-10T20:53:01.593Z,100841.95
2023-05-10T20:56:02.428Z,100842.64
2023-05-10T20:59:02.935Z,100844.44
2023-05-10T21:02:03.497Z,100840.71
2023-05-10T21:05:03.481Z,100841.96
2023-05-10T21:08:05.745Z,100842.34
2023-05-10T21:11:05.495Z,100843.94
2023-05-10T21:14:05.797Z,100845.43
2023-05-10T21:17:05.496Z,100846.67
2023-05-10T21:20:05.501Z,100845.50
2023-05-10T21:23:05.621Z,100843.40
2023-05-10T21:26:07.528Z,100840.63
2023-05-10T21:29:07.564Z,100840.61
2023-05-10T21:32:07.664Z,100843.04
2023-05-10T21:35:07.491Z,100850.56
2023-05-10T21:38:07.471Z,100849.25
2023-05-10T21:41:07.541Z,100846.69
2023-05-10T21:44:07.464Z,100843.39
2023-05-10T21:47:07.543Z,100846.93
2023-05-10T21:50:07.548Z,100844.54
2023-05-10T21:53:10.063Z,100843.50
2023-05-10T21:56:10.509Z,100842.23
2023-05-10T22:00:59.718Z,100843.48
2023-05-10T22:04:00.690Z,100842.69
2023-05-10T22:06:54.783Z,100844.86
2023-05-10T22:09:56.797Z,100842.45
2023-05-10T22:12:58.713Z,100842.58
2023-05-10T22:16:01.728Z,100844.29
2023-05-10T22:19:02.792Z,100843.95
2023-05-10T22:22:04.922Z,100845.41
2023-05-10T22:25:05.909Z,100847.98
2023-05-10T22:28:06.692Z,100845.38
2023-05-10T22:31:07.736Z,100848.04
2023-05-10T22:34:10.938Z,100847.98
2023-05-10T22:37:12.811Z,100847.79
2023-05-10T22:40:13.752Z,100848.45
2023-05-10T22:43:14.787Z,100851.90
2023-05-10T22:46:15.804Z,100856.87
2023-05-10T22:49:09.838Z,100852.64
2023-05-10T22:52:10.745Z,100850.80
2023-05-10T22:55:11.718Z,100854.04
2023-05-10T22:58:12.807Z,100850.00
2023-05-10T23:01:13.765Z,100850.15
2023-05-10T23:04:14.796Z,100847.48
2023-05-10T23:07:16.737Z,100849.41
2023-05-10T23:10:18.216Z,100851.49
2023-05-10T23:13:18.810Z,100848.63
2023-05-10T23:16:19.846Z,100849.20
2023-05-10T23:19:20.866Z,100850.17
2023-05-10T23:22:21.803Z,100848.60
2023-05-10T23:25:22.827Z,100846.99
2023-05-10T23:28:23.833Z,100848.77
2023-05-10T23:31:17.951Z,100854.59
2023-05-10T23:34:19.828Z,100854.86
2023-05-10T23:37:20.906Z,100858.78
2023-05-10T23:40:21.901Z,100855.85
2023-05-10T23:43:22.838Z,100860.44
2023-05-10T23:46:23.906Z,100863.66
2023-05-10T23:49:25.882Z,100863.23
2023-05-10T23:52:29.848Z,100866.27
2023-05-10T23:55:30.820Z,100867.55
2023-05-10T23:58:32.035Z,100866.49
